sensor_id;sensor_type;location;lat;lon;timestamp;pressure;altitude;pressure_sealevel;temperature;humidity
76352;BME280;65179;47.786;19.138;2022-12-07T00:03:31;100286.06;;;3.33;86.22
76352;BME280;65179;47.786;19.138;2022-12-07T00:06:00;100284.91;;;3.35;86.10
76352;BME280;65179;47.786;19.138;2022-12-07T00:08:26;100279.53;;;3.35;86.11
76352;BME280;65179;47.786;19.138;2022-12-07T00:10:51;100267.28;;;3.33;86.09
76352;BME280;65179;47.786;19.138;2022-12-07T00:13:16;100268.28;;;3.32;86.01
76352;BME280;65179;47.786;19.138;2022-12-07T00:15:42;100257.94;;;3.29;86.41
76352;BME280;65179;47.786;19.138;2022-12-07T00:18:07;100256.81;;;3.15;86.56
76352;BME280;65179;47.786;19.138;2022-12-07T00:20:33;100263.38;;;3.13;86.43
76352;BME280;65179;47.786;19.138;2022-12-07T00:22:58;100264.25;;;3.05;86.27
76352;BME280;65179;47.786;19.138;2022-12-07T00:25:24;100261.44;;;2.98;86.18
76352;BME280;65179;47.786;19.138;2022-12-07T00:27:49;100251.56;;;2.91;86.29
76352;BME280;65179;47.786;19.138;2022-12-07T00:30:15;100257.31;;;2.80;86.57
76352;BME280;65179;47.786;19.138;2022-12-07T00:32:40;100254.47;;;2.81;86.71
76352;BME280;65179;47.786;19.138;2022-12-07T00:35:06;100248.13;;;2.74;86.64
76352;BME280;65179;47.786;19.138;2022-12-07T00:37:31;100250.47;;;2.69;86.59
76352;BME280;65179;47.786;19.138;2022-12-07T00:39:57;100253.69;;;2.65;86.56
76352;BME280;65179;47.786;19.138;2022-12-07T00:42:22;100252.50;;;2.67;86.71
76352;BME280;65179;47.786;19.138;2022-12-07T00:44:48;100249.50;;;2.62;86.73
76352;BME280;65179;47.786;19.138;2022-12-07T00:47:13;100244.81;;;2.56;86.82
76352;BME280;65179;47.786;19.138;2022-12-07T00:49:38;100256.25;;;2.50;86.77
76352;BME280;65179;47.786;19.138;2022-12-07T00:52:04;100257.94;;;2.51;86.64
76352;BME280;65179;47.786;19.138;2022-12-07T00:54:29;100258.94;;;2.42;86.37
76352;BME280;65179;47.786;19.138;2022-12-07T00:56:55;100253.06;;;2.39;86.54
76352;BME280;65179;47.786;19.138;2022-12-07T00:59:20;100263.31;;;2.35;86.56
76352;BME280;65179;47.786;19.138;2022-12-07T01:01:46;100262.28;;;2.36;86.83
76352;BME280;65179;47.786;19.138;2022-12-07T01:04:11;100261.28;;;2.37;86.78
76352;BME280;65179;47.786;19.138;2022-12-07T01:06:36;100256.94;;;2.36;86.80
76352;BME280;65179;47.786;19.138;2022-12-07T01:09:02;100262.62;;;2.41;86.64
76352;BME280;65179;47.786;19.138;2022-12-07T01:11:29;100264.97;;;2.36;86.77
76352;BME280;65179;47.786;19.138;2022-12-07T01:13:57;100256.94;;;2.36;86.61
76352;BME280;65179;47.786;19.138;2022-12-07T01:16:25;100253.75;;;2.33;86.66
76352;BME280;65179;47.786;19.138;2022-12-07T01:18:53;100245.91;;;2.31;86.60
76352;BME280;65179;47.786;19.138;2022-12-07T01:21:27;100240.72;;;2.29;86.47
76352;BME280;65179;47.786;19.138;2022-12-07T01:23:53;100244.25;;;2.22;86.41
76352;BME280;65179;47.786;19.138;2022-12-07T01:26:22;100237.56;;;2.18;86.24
76352;BME280;65179;47.786;19.138;2022-12-07T01:28:48;100241.88;;;2.19;86.24
76352;BME280;65179;47.786;19.138;2022-12-07T01:31:16;100246.25;;;2.20;86.54
76352;BME280;65179;47.786;19.138;2022-12-07T01:33:44;100239.22;;;2.19;86.55
76352;BME280;65179;47.786;19.138;2022-12-07T01:36:18;100241.88;;;2.19;86.81
76352;BME280;65179;47.786;19.138;2022-12-07T01:38:46;100242.25;;;2.16;86.87
76352;BME280;65179;47.786;19.138;2022-12-07T01:41:12;100248.09;;;2.19;86.95
76352;BME280;65179;47.786;19.138;2022-12-07T01:46:35;100235.53;;;2.20;87.17
76352;BME280;65179;47.786;19.138;2022-12-07T01:49:01;100230.84;;;2.22;87.09
76352;BME280;65179;47.786;19.138;2022-12-07T01:51:28;100229.50;;;2.26;87.06
76352;BME280;65179;47.786;19.138;2022-12-07T01:53:53;100229.69;;;2.24;87.15
76352;BME280;65179;47.786;19.138;2022-12-07T01:56:22;100231.19;;;2.27;87.19
76352;BME280;65179;47.786;19.138;2022-12-07T01:58:49;100225.16;;;2.25;87.35
76352;BME280;65179;47.786;19.138;2022-12-07T02:01:15;100223.97;;;2.27;87.41
76352;BME280;65179;47.786;19.138;2022-12-07T02:03:43;100222.97;;;2.28;87.39
76352;BME280;65179;47.786;19.138;2022-12-07T02:06:10;100225.50;;;2.22;87.63
76352;BME280;65179;47.786;19.138;2022-12-07T02:08:37;100224.09;;;2.34;87.46
76352;BME280;65179;47.786;19.138;2022-12-07T02:11:04;100220.78;;;2.40;87.46
76352;BME280;65179;47.786;19.138;2022-12-07T02:13:33;100232.97;;;2.43;87.53
76352;BME280;65179;47.786;19.138;2022-12-07T02:16:21;100226.78;;;2.42;87.48
76352;BME280;65179;47.786;19.138;2022-12-07T02:21:46;100233.84;;;2.35;87.94
76352;BME280;65179;47.786;19.138;2022-12-07T02:27:24;100236.63;;;2.50;88.00
76352;BME280;65179;47.786;19.138;2022-12-07T02:30:15;100228.75;;;2.56;87.45
76352;BME280;65179;47.786;19.138;2022-12-07T02:33:02;100232.09;;;2.58;87.17
76352;BME280;65179;47.786;19.138;2022-12-07T02:35:34;100223.75;;;2.53;87.11
76352;BME280;65179;47.786;19.138;2022-12-07T02:40:50;100215.53;;;2.55;87.58
76352;BME280;65179;47.786;19.138;2022-12-07T02:43:17;100220.37;;;2.59;87.33
76352;BME280;65179;47.786;19.138;2022-12-07T02:45:45;100219.00;;;2.63;87.25
76352;BME280;65179;47.786;19.138;2022-12-07T02:48:16;100214.34;;;2.57;87.43
76352;BME280;65179;47.786;19.138;2022-12-07T02:50:52;100219.19;;;2.62;87.42
76352;BME280;65179;47.786;19.138;2022-12-07T02:53:37;100219.34;;;2.60;87.13
76352;BME280;65179;47.786;19.138;2022-12-07T02:56:11;100225.03;;;2.65;87.33
76352;BME280;65179;47.786;19.138;2022-12-07T03:01:19;100225.88;;;2.66;87.40
76352;BME280;65179;47.786;19.138;2022-12-07T03:03:58;100210.63;;;2.66;87.28
76352;BME280;65179;47.786;19.138;2022-12-07T03:06:31;100216.81;;;2.67;87.34
76352;BME280;65179;47.786;19.138;2022-12-07T03:09:15;100212.59;;;2.72;87.29
76352;BME280;65179;47.786;19.138;2022-12-07T03:11:48;100218.12;;;2.71;87.60
76352;BME280;65179;47.786;19.138;2022-12-07T03:14:21;100220.00;;;2.70;87.57
76352;BME280;65179;47.786;19.138;2022-12-07T03:19:19;100221.66;;;2.71;87.40
76352;BME280;65179;47.786;19.138;2022-12-07T03:22:07;100212.59;;;2.72;87.50
76352;BME280;65179;47.786;19.138;2022-12-07T03:24:55;100204.72;;;2.71;88.00
76352;BME280;65179;47.786;19.138;2022-12-07T03:27:28;100209.28;;;2.70;87.72
76352;BME280;65179;47.786;19.138;2022-12-07T03:30:06;100203.91;;;2.70;87.53
76352;BME280;65179;47.786;19.138;2022-12-07T03:32:37;100211.28;;;2.68;87.97
76352;BME280;65179;47.786;19.138;2022-12-07T03:37:57;100207.44;;;2.63;88.59
76352;BME280;65179;47.786;19.138;2022-12-07T03:41:07;100210.63;;;2.58;88.69
76352;BME280;65179;47.786;19.138;2022-12-07T03:43:34;100210.78;;;2.65;88.35
76352;BME280;65179;47.786;19.138;2022-12-07T03:49:12;100215.31;;;2.64;88.61
76352;BME280;65179;47.786;19.138;2022-12-07T03:54:49;100200.91;;;2.65;88.34
76352;BME280;65179;47.786;19.138;2022-12-07T03:57:19;100204.09;;;2.61;88.24
76352;BME280;65179;47.786;19.138;2022-12-07T03:59:47;100211.62;;;2.65;88.43
76352;BME280;65179;47.786;19.138;2022-12-07T04:02:13;100208.28;;;2.63;88.54
76352;BME280;65179;47.786;19.138;2022-12-07T04:04:39;100207.09;;;2.66;88.46
76352;BME280;65179;47.786;19.138;2022-12-07T04:07:05;100208.75;;;2.67;88.47
76352;BME280;65179;47.786;19.138;2022-12-07T04:09:30;100206.91;;;2.67;88.60
76352;BME280;65179;47.786;19.138;2022-12-07T04:11:56;100209.28;;;2.70;88.59
76352;BME280;65179;47.786;19.138;2022-12-07T04:14:21;100206.59;;;2.70;88.35
76352;BME280;65179;47.786;19.138;2022-12-07T04:16:52;100210.06;;;2.71;88.84
76352;BME280;65179;47.786;19.138;2022-12-07T04:19:20;100207.59;;;2.69;88.52
76352;BME280;65179;47.786;19.138;2022-12-07T04:21:47;100216.28;;;2.71;88.38
76352;BME280;65179;47.786;19.138;2022-12-07T04:24:14;100203.41;;;2.67;88.39
76352;BME280;65179;47.786;19.138;2022-12-07T04:26:41;100204.56;;;2.64;88.31
76352;BME280;65179;47.786;19.138;2022-12-07T04:29:07;100207.94;;;2.66;88.43
76352;BME280;65179;47.786;19.138;2022-12-07T04:31:34;100222.69;;;2.62;88.64
76352;BME280;65179;47.786;19.138;2022-12-07T04:33:59;100206.97;;;2.59;88.53
76352;BME280;65179;47.786;19.138;2022-12-07T04:36:25;100210.31;;;2.61;88.46
76352;BME280;65179;47.786;19.138;2022-12-07T04:38:53;100206.97;;;2.59;88.71
76352;BME280;65179;47.786;19.138;2022-12-07T04:41:18;100209.47;;;2.61;88.59
76352;BME280;65179;47.786;19.138;2022-12-07T04:43:44;100206.97;;;2.59;88.64
76352;BME280;65179;47.786;19.138;2022-12-07T04:46:15;100204.94;;;2.61;88.80
76352;BME280;65179;47.786;19.138;2022-12-07T04:48:41;100207.44;;;2.63;88.78
76352;BME280;65179;47.786;19.138;2022-12-07T04:51:06;100208.62;;;2.60;88.69
76352;BME280;65179;47.786;19.138;2022-12-07T04:53:31;100209.28;;;2.62;88.74
76352;BME280;65179;47.786;19.138;2022-12-07T04:55:57;100200.56;;;2.60;88.83
76352;BME280;65179;47.786;19.138;2022-12-07T04:58:23;100200.94;;;2.57;88.91
76352;BME280;65179;47.786;19.138;2022-12-07T05:00:48;100199.09;;;2.58;88.81
76352;BME280;65179;47.786;19.138;2022-12-07T05:03:14;100201.09;;;2.56;89.12
76352;BME280;65179;47.786;19.138;2022-12-07T05:05:41;100197.41;;;2.57;89.19
76352;BME280;65179;47.786;19.138;2022-12-07T05:08:06;100207.97;;;2.58;89.32
76352;BME280;65179;47.786;19.138;2022-12-07T05:10:32;100201.94;;;2.56;89.39
76352;BME280;65179;47.786;19.138;2022-12-07T05:12:57;100205.47;;;2.57;89.47
76352;BME280;65179;47.786;19.138;2022-12-07T05:15:23;100203.63;;;2.57;89.56
76352;BME280;65179;47.786;19.138;2022-12-07T05:17:48;100202.13;;;2.55;89.72
76352;BME280;65179;47.786;19.138;2022-12-07T05:20:13;100198.59;;;2.54;89.82
76352;BME280;65179;47.786;19.138;2022-12-07T05:22:39;100207.28;;;2.56;89.99
76352;BME280;65179;47.786;19.138;2022-12-07T05:25:04;100198.59;;;2.54;90.17
76352;BME280;65179;47.786;19.138;2022-12-07T05:27:30;100202.13;;;2.55;90.21
76352;BME280;65179;47.786;19.138;2022-12-07T05:29:55;100201.66;;;2.51;90.35
76352;BME280;65179;47.786;19.138;2022-12-07T05:32:21;100200.63;;;2.52;90.21
76352;BME280;65179;47.786;19.138;2022-12-07T05:34:46;100200.63;;;2.52;90.40
76352;BME280;65179;47.786;19.138;2022-12-07T05:37:11;100208.84;;;2.51;90.55
76352;BME280;65179;47.786;19.138;2022-12-07T05:39:37;100202.63;;;2.50;90.89
76352;BME280;65179;47.786;19.138;2022-12-07T05:42:06;100209.31;;;2.54;90.81
76352;BME280;65179;47.786;19.138;2022-12-07T05:44:40;100197.75;;;2.54;90.84
76352;BME280;65179;47.786;19.138;2022-12-07T05:47:07;100207.28;;;2.56;90.78
76352;BME280;65179;47.786;19.138;2022-12-07T05:49:32;100200.28;;;2.55;90.88
76352;BME280;65179;47.786;19.138;2022-12-07T05:51:57;100203.25;;;2.60;91.07
76352;BME280;65179;47.786;19.138;2022-12-07T05:54:23;100206.59;;;2.62;90.84
76352;BME280;65179;47.786;19.138;2022-12-07T05:56:48;100205.78;;;2.62;90.63
76352;BME280;65179;47.786;19.138;2022-12-07T05:59:14;100199.22;;;2.64;90.65
76352;BME280;65179;47.786;19.138;2022-12-07T06:04:22;100209.13;;;2.64;90.91
76352;BME280;65179;47.786;19.138;2022-12-07T06:06:47;100204.56;;;2.64;90.87
76352;BME280;65179;47.786;19.138;2022-12-07T06:09:13;100213.31;;;2.66;90.69
76352;BME280;65179;47.786;19.138;2022-12-07T06:11:39;100212.47;;;2.66;90.62
76352;BME280;65179;47.786;19.138;2022-12-07T06:14:23;100210.31;;;2.61;90.60
76352;BME280;65179;47.786;19.138;2022-12-07T06:16:49;100208.62;;;2.60;90.77
76352;BME280;65179;47.786;19.138;2022-12-07T06:19:15;100211.16;;;2.62;90.85
76352;BME280;65179;47.786;19.138;2022-12-07T06:21:40;100216.50;;;2.62;91.11
76352;BME280;65179;47.786;19.138;2022-12-07T06:24:06;100222.03;;;2.60;91.30
76352;BME280;65179;47.786;19.138;2022-12-07T06:26:32;100217.03;;;2.57;91.39
76352;BME280;65179;47.786;19.138;2022-12-07T06:28:57;100218.88;;;2.57;91.48
76352;BME280;65179;47.786;19.138;2022-12-07T06:31:23;100212.66;;;2.56;91.46
76352;BME280;65179;47.786;19.138;2022-12-07T06:33:48;100216.19;;;2.57;91.56
76352;BME280;65179;47.786;19.138;2022-12-07T06:36:14;100218.69;;;2.58;91.52
76352;BME280;65179;47.786;19.138;2022-12-07T06:38:39;100215.00;;;2.59;91.62
76352;BME280;65179;47.786;19.138;2022-12-07T06:41:05;100212.97;;;2.61;91.58
76352;BME280;65179;47.786;19.138;2022-12-07T06:43:31;100221.03;;;2.61;91.46
76352;BME280;65179;47.786;19.138;2022-12-07T06:45:57;100211.97;;;2.62;91.64
76352;BME280;65179;47.786;19.138;2022-12-07T06:48:22;100213.16;;;2.60;92.00
76352;BME280;65179;47.786;19.138;2022-12-07T06:50:48;100211.97;;;2.62;91.86
76352;BME280;65179;47.786;19.138;2022-12-07T06:53:14;100225.38;;;2.62;91.79
76352;BME280;65179;47.786;19.138;2022-12-07T06:55:39;100222.34;;;2.65;91.60
76352;BME280;65179;47.786;19.138;2022-12-07T06:58:04;100219.66;;;2.65;91.68
76352;BME280;65179;47.786;19.138;2022-12-07T07:00:30;100225.69;;;2.67;91.72
76352;BME280;65179;47.786;19.138;2022-12-07T07:02:55;100231.91;;;2.68;91.76
76352;BME280;65179;47.786;19.138;2022-12-07T07:05:21;100227.37;;;2.68;91.70
76352;BME280;65179;47.786;19.138;2022-12-07T07:07:48;100229.53;;;2.73;92.22
76352;BME280;65179;47.786;19.138;2022-12-07T07:10:14;100238.72;;;2.78;92.02
76352;BME280;65179;47.786;19.138;2022-12-07T07:12:39;100235.03;;;2.79;92.40
76352;BME280;65179;47.786;19.138;2022-12-07T07:15:05;100240.19;;;2.89;92.37
76352;BME280;65179;47.786;19.138;2022-12-07T07:17:30;100235.94;;;3.02;92.09
76352;BME280;65179;47.786;19.138;2022-12-07T07:19:56;100230.19;;;3.14;92.00
76352;BME280;65179;47.786;19.138;2022-12-07T07:22:21;100231.81;;;3.23;91.60
76352;BME280;65179;47.786;19.138;2022-12-07T07:24:47;100229.59;;;3.26;91.50
76352;BME280;65179;47.786;19.138;2022-12-07T07:27:12;100226.19;;;3.32;91.30
76352;BME280;65179;47.786;19.138;2022-12-07T07:29:37;100228.69;;;3.34;91.15
76352;BME280;65179;47.786;19.138;2022-12-07T07:32:03;100224.09;;;3.42;90.77
76352;BME280;65179;47.786;19.138;2022-12-07T07:34:28;100224.41;;;3.47;90.63
76352;BME280;65179;47.786;19.138;2022-12-07T07:36:54;100231.94;;;3.52;90.53
76352;BME280;65179;47.786;19.138;2022-12-07T07:39:19;100224.19;;;3.57;90.30
76352;BME280;65179;47.786;19.138;2022-12-07T07:41:46;100228.00;;;3.62;90.14
76352;BME280;65179;47.786;19.138;2022-12-07T07:44:12;100232.63;;;3.68;89.58
76352;BME280;65179;47.786;19.138;2022-12-07T07:46:37;100226.91;;;3.71;89.41
76352;BME280;65179;47.786;19.138;2022-12-07T07:49:03;100228.41;;;3.74;89.24
76352;BME280;65179;47.786;19.138;2022-12-07T07:51:28;100228.03;;;3.77;89.25
76352;BME280;65179;47.786;19.138;2022-12-07T07:53:53;100225.66;;;3.82;88.77
76352;BME280;65179;47.786;19.138;2022-12-07T07:56:19;100228.16;;;3.83;88.89
76352;BME280;65179;47.786;19.138;2022-12-07T07:58:44;100225.75;;;3.89;88.90
76352;BME280;65179;47.786;19.138;2022-12-07T08:01:09;100235.97;;;3.93;88.69
76352;BME280;65179;47.786;19.138;2022-12-07T08:03:35;100226.91;;;3.94;88.49
76352;BME280;65179;47.786;19.138;2022-12-07T08:06:04;100230.72;;;4.00;88.54
76352;BME280;65179;47.786;19.138;2022-12-07T08:08:30;100233.19;;;4.01;88.14
76352;BME280;65179;47.786;19.138;2022-12-07T08:10:56;100239.06;;;4.05;88.03
76352;BME280;65179;47.786;19.138;2022-12-07T08:13:25;100246.09;;;4.06;88.00
76352;BME280;65179;47.786;19.138;2022-12-07T08:15:51;100248.44;;;4.09;87.82
76352;BME280;65179;47.786;19.138;2022-12-07T08:18:16;100244.34;;;4.13;87.56
76352;BME280;65179;47.786;19.138;2022-12-07T08:20:42;100243.31;;;4.14;87.36
76352;BME280;65179;47.786;19.138;2022-12-07T08:23:08;100238.44;;;4.17;87.20
76352;BME280;65179;47.786;19.138;2022-12-07T08:25:34;100252.16;;;4.22;86.80
76352;BME280;65179;47.786;19.138;2022-12-07T08:28:00;100243.09;;;4.23;86.85
76352;BME280;65179;47.786;19.138;2022-12-07T08:30:26;100246.06;;;4.28;86.72
76352;BME280;65179;47.786;19.138;2022-12-07T08:32:51;100254.37;;;4.33;86.49
76352;BME280;65179;47.786;19.138;2022-12-07T08:35:17;100252.34;;;4.35;85.98
76352;BME280;65179;47.786;19.138;2022-12-07T08:37:42;100250.34;;;4.37;86.12
76352;BME280;65179;47.786;19.138;2022-12-07T08:40:09;100248.75;;;4.43;85.78
76352;BME280;65179;47.786;19.138;2022-12-07T08:42:35;100251.75;;;4.48;85.70
76352;BME280;65179;47.786;19.138;2022-12-07T08:45:10;100256.56;;;4.52;85.29
76352;BME280;65179;47.786;19.138;2022-12-07T08:47:50;100252.75;;;4.61;85.51
76352;BME280;65179;47.786;19.138;2022-12-07T08:50:17;100253.87;;;4.67;84.90
76352;BME280;65179;47.786;19.138;2022-12-07T08:52:43;100249.88;;;4.78;84.58
76352;BME280;65179;47.786;19.138;2022-12-07T08:55:12;100250.75;;;5.14;83.35
76352;BME280;65179;47.786;19.138;2022-12-07T08:57:38;100241.78;;;5.43;82.02
76352;BME280;65179;47.786;19.138;2022-12-07T09:00:05;100242.22;;;5.46;80.91
76352;BME280;65179;47.786;19.138;2022-12-07T09:02:31;100250.59;;;5.51;80.83
76352;BME280;65179;47.786;19.138;2022-12-07T09:04:56;100245.78;;;5.68;79.86
76352;BME280;65179;47.786;19.138;2022-12-07T09:07:22;100258.03;;;5.70;79.95
76352;BME280;65179;47.786;19.138;2022-12-07T09:09:48;100255.88;;;6.01;77.80
76352;BME280;65179;47.786;19.138;2022-12-07T09:12:13;100250.34;;;6.09;76.13
76352;BME280;65179;47.786;19.138;2022-12-07T09:14:39;100244.66;;;6.87;74.97
76352;BME280;65179;47.786;19.138;2022-12-07T09:17:09;100238.03;;;7.44;72.77
76352;BME280;65179;47.786;19.138;2022-12-07T09:19:35;100240.03;;;8.02;70.98
76352;BME280;65179;47.786;19.138;2022-12-07T09:22:01;100238.19;;;8.29;68.86
76352;BME280;65179;47.786;19.138;2022-12-07T09:24:34;100237.66;;;8.84;67.92
76352;BME280;65179;47.786;19.138;2022-12-07T09:27:02;100250.13;;;9.05;66.42
76352;BME280;65179;47.786;19.138;2022-12-07T09:29:27;100238.88;;;9.01;65.52
76352;BME280;65179;47.786;19.138;2022-12-07T09:31:53;100241.50;;;9.21;65.04
76352;BME280;65179;47.786;19.138;2022-12-07T09:34:18;100241.94;;;9.18;63.09
76352;BME280;65179;47.786;19.138;2022-12-07T09:36:44;100239.94;;;9.45;62.88
76352;BME280;65179;47.786;19.138;2022-12-07T09:39:12;100238.19;;;9.12;60.97
76352;BME280;65179;47.786;19.138;2022-12-07T09:41:45;100229.88;;;9.52;62.08
76352;BME280;65179;47.786;19.138;2022-12-07T09:44:21;100227.09;;;9.65;60.98
76352;BME280;65179;47.786;19.138;2022-12-07T09:46:48;100222.16;;;9.86;60.40
76352;BME280;65179;47.786;19.138;2022-12-07T09:49:18;100226.59;;;10.12;60.07
76352;BME280;65179;47.786;19.138;2022-12-07T09:51:45;100227.53;;;10.24;58.69
76352;BME280;65179;47.786;19.138;2022-12-07T09:54:15;100220.16;;;10.31;58.27
76352;BME280;65179;47.786;19.138;2022-12-07T09:56:42;100213.31;;;10.72;57.92
76352;BME280;65179;47.786;19.138;2022-12-07T09:59:18;100211.94;;;10.81;56.67
76352;BME280;65179;47.786;19.138;2022-12-07T10:01:46;100218.41;;;11.34;56.64
76352;BME280;65179;47.786;19.138;2022-12-07T10:04:22;100209.78;;;11.37;56.14
76352;BME280;65179;47.786;19.138;2022-12-07T10:06:49;100217.53;;;11.04;56.30
76352;BME280;65179;47.786;19.138;2022-12-07T10:09:18;100223.00;;;9.87;57.64
76352;BME280;65179;47.786;19.138;2022-12-07T10:12:10;100213.03;;;10.06;58.32
76352;BME280;65179;47.786;19.138;2022-12-07T10:14:52;100205.44;;;9.21;60.51
76352;BME280;65179;47.786;19.138;2022-12-07T10:17:32;100199.69;;;8.33;63.32
76352;BME280;65179;47.786;19.138;2022-12-07T10:20:28;100205.47;;;8.11;64.19
76352;BME280;65179;47.786;19.138;2022-12-07T10:25:24;100213.34;;;7.47;66.67
76352;BME280;65179;47.786;19.138;2022-12-07T10:31:03;100199.87;;;7.06;67.86
76352;BME280;65179;47.786;19.138;2022-12-07T10:33:37;100202.72;;;6.85;68.81
76352;BME280;65179;47.786;19.138;2022-12-07T10:38:53;100201.25;;;6.82;69.38
76352;BME280;65179;47.786;19.138;2022-12-07T10:41:23;100203.78;;;6.91;69.83
76352;BME280;65179;47.786;19.138;2022-12-07T10:43:51;100200.63;;;6.87;69.75
76352;BME280;65179;47.786;19.138;2022-12-07T10:52:04;100204.72;;;6.70;70.05
76352;BME280;65179;47.786;19.138;2022-12-07T10:58:06;100199.66;;;6.54;70.57
76352;BME280;65179;47.786;19.138;2022-12-07T11:06:26;100175.41;;;7.08;68.49
76352;BME280;65179;47.786;19.138;2022-12-07T11:09:09;100166.72;;;7.19;68.67
76352;BME280;65179;47.786;19.138;2022-12-07T11:12:02;100172.50;;;7.16;67.95
76352;BME280;65179;47.786;19.138;2022-12-07T11:14:39;100164.38;;;7.03;68.81
76352;BME280;65179;47.786;19.138;2022-12-07T11:19:53;100162.69;;;6.95;68.24
76352;BME280;65179;47.786;19.138;2022-12-07T11:22:43;100164.00;;;6.65;68.63
76352;BME280;65179;47.786;19.138;2022-12-07T11:30:34;100167.44;;;7.73;66.05
76352;BME280;65179;47.786;19.138;2022-12-07T11:33:15;100160.13;;;7.67;64.79
76352;BME280;65179;47.786;19.138;2022-12-07T11:35:49;100153.25;;;8.04;64.29
76352;BME280;65179;47.786;19.138;2022-12-07T11:38:23;100163.25;;;7.44;64.62
76352;BME280;65179;47.786;19.138;2022-12-07T11:40:56;100173.59;;;7.34;66.13
76352;BME280;65179;47.786;19.138;2022-12-07T11:43:48;100175.03;;;7.24;66.77
76352;BME280;65179;47.786;19.138;2022-12-07T11:46:17;100164.28;;;7.56;64.95
76352;BME280;65179;47.786;19.138;2022-12-07T11:48:50;100162.59;;;8.40;62.59
76352;BME280;65179;47.786;19.138;2022-12-07T11:51:21;100162.19;;;8.17;62.11
76352;BME280;65179;47.786;19.138;2022-12-07T11:54:09;100154.19;;;8.81;61.39
76352;BME280;65179;47.786;19.138;2022-12-07T11:56:36;100156.88;;;9.81;58.35
76352;BME280;65179;47.786;19.138;2022-12-07T11:59:16;100154.94;;;10.38;56.29
76352;BME280;65179;47.786;19.138;2022-12-07T12:06:41;100130.53;;;10.74;53.63
76352;BME280;65179;47.786;19.138;2022-12-07T12:09:19;100128.19;;;10.78;53.44
76352;BME280;65179;47.786;19.138;2022-12-07T12:20:13;100123.75;;;10.47;54.54
76352;BME280;65179;47.786;19.138;2022-12-07T12:22:48;100119.06;;;10.18;55.95
76352;BME280;65179;47.786;19.138;2022-12-07T12:25:37;100119.00;;;10.24;55.87
76352;BME280;65179;47.786;19.138;2022-12-07T12:28:04;100112.03;;;9.30;57.12
76352;BME280;65179;47.786;19.138;2022-12-07T12:30:35;100126.47;;;9.17;57.89
76352;BME280;65179;47.786;19.138;2022-12-07T12:33:21;100127.75;;;9.14;58.01
76352;BME280;65179;47.786;19.138;2022-12-07T12:51:56;100124.38;;;7.98;62.20
76352;BME280;65179;47.786;19.138;2022-12-07T12:54:27;100126.44;;;7.96;63.50
76352;BME280;65179;47.786;19.138;2022-12-07T12:59:34;100134.34;;;7.84;63.70
76352;BME280;65179;47.786;19.138;2022-12-07T13:02:22;100135.19;;;7.65;63.74
76352;BME280;65179;47.786;19.138;2022-12-07T13:15:37;100141.25;;;6.87;65.39
76352;BME280;65179;47.786;19.138;2022-12-07T13:20:56;100141.84;;;6.76;65.97
76352;BME280;65179;47.786;19.138;2022-12-07T13:23:38;100145.34;;;6.70;66.56
76352;BME280;65179;47.786;19.138;2022-12-07T13:28:49;100140.97;;;6.62;67.38
76352;BME280;65179;47.786;19.138;2022-12-07T13:31:37;100149.81;;;6.50;67.16
76352;BME280;65179;47.786;19.138;2022-12-07T13:34:27;100146.25;;;6.43;67.55
76352;BME280;65179;47.786;19.138;2022-12-07T13:36:51;100159.03;;;6.28;67.65
76352;BME280;65179;47.786;19.138;2022-12-07T13:39:18;100154.16;;;6.44;67.71
76352;BME280;65179;47.786;19.138;2022-12-07T13:41:45;100157.28;;;6.54;67.57
76352;BME280;65179;47.786;19.138;2022-12-07T13:44:15;100150.47;;;6.58;67.29
76352;BME280;65179;47.786;19.138;2022-12-07T13:51:45;100154.00;;;6.59;67.20
76352;BME280;65179;47.786;19.138;2022-12-07T13:54:12;100162.31;;;6.57;67.36
76352;BME280;65179;47.786;19.138;2022-12-07T13:56:39;100158.97;;;6.55;67.61
76352;BME280;65179;47.786;19.138;2022-12-07T13:59:12;100160.22;;;6.53;67.55
76352;BME280;65179;47.786;19.138;2022-12-07T14:01:38;100156.22;;;6.42;67.98
76352;BME280;65179;47.786;19.138;2022-12-07T14:06:54;100164.59;;;6.26;68.18
76352;BME280;65179;47.786;19.138;2022-12-07T14:09:21;100170.84;;;6.27;68.31
76352;BME280;65179;47.786;19.138;2022-12-07T14:11:48;100173.53;;;6.27;68.64
76352;BME280;65179;47.786;19.138;2022-12-07T14:14:21;100164.47;;;6.34;68.46
76352;BME280;65179;47.786;19.138;2022-12-07T14:17:02;100169.03;;;6.34;68.87
76352;BME280;65179;47.786;19.138;2022-12-07T14:22:34;100161.81;;;6.41;68.85
76352;BME280;65179;47.786;19.138;2022-12-07T14:25:20;100166.28;;;6.27;69.47
76352;BME280;65179;47.786;19.138;2022-12-07T14:27:54;100157.31;;;6.20;69.83
76352;BME280;65179;47.786;19.138;2022-12-07T14:30:22;100153.63;;;6.28;70.00
76352;BME280;65179;47.786;19.138;2022-12-07T14:32:53;100151.88;;;6.13;70.02
76352;BME280;65179;47.786;19.138;2022-12-07T14:35:20;100158.34;;;6.19;70.53
76352;BME280;65179;47.786;19.138;2022-12-07T14:37:48;100157.00;;;6.02;70.57
76352;BME280;65179;47.786;19.138;2022-12-07T14:40:21;100162.13;;;5.97;70.87
76352;BME280;65179;47.786;19.138;2022-12-07T14:42:53;100162.87;;;5.84;71.17
76352;BME280;65179;47.786;19.138;2022-12-07T14:45:22;100163.94;;;5.90;71.74
76352;BME280;65179;47.786;19.138;2022-12-07T14:47:49;100171.28;;;5.81;71.80
76352;BME280;65179;47.786;19.138;2022-12-07T14:50:18;100168.81;;;5.80;71.98
76352;BME280;65179;47.786;19.138;2022-12-07T14:52:56;100166.22;;;5.72;72.24
76352;BME280;65179;47.786;19.138;2022-12-07T14:55:27;100176.13;;;5.65;72.57
76352;BME280;65179;47.786;19.138;2022-12-07T14:57:54;100176.44;;;5.55;72.74
76352;BME280;65179;47.786;19.138;2022-12-07T15:00:23;100179.28;;;5.47;73.23
76352;BME280;65179;47.786;19.138;2022-12-07T15:02:51;100184.53;;;5.34;73.36